^^
Saratoga-Weather Station Historical Data
Daily Summary for September 24, 2022 Units:  Metric    English   Both
Daily Weekly Monthly Yearly Custom
  High: Low: Average:
Temperature: 17 °C 8.8 °C 12.9 °C
Dew Point: 11.1 °C 7.1 °C 9.3 °C
Humidity: 91% 64% 80%
Wind Speed: 11.3km/h 0km/h 1.4km/h
Wind Gust: 12.9km/h - -
Wind- - SW
Pressure: 1013.5 hPa 1010.5 hPa -
Precipitation: 0.0 mm    
Historical Graphs
 
 
Tabular Data for September 24, 2022
Time Temperature Dew Point Pressure Wind Wind Speed Wind Gust Humidity Rainfall Rate (Hourly) solar
00:02 10.3 °C 7.5 °C 1013.5 hPa Calm     83% 0.0 mm 0 W/m2
00:07 10.2 °C 7.6 °C 1013.5 hPa Calm     84% 0.0 mm 0 W/m2
00:12 10.1 °C 7.5 °C 1013.5 hPa Calm     84% 0.0 mm 0 W/m2
00:17 10.1 °C 7.5 °C 1013.5 hPa Calm     84% 0.0 mm 0 W/m2
00:22 9.9 °C 7.5 °C 1013.5 hPa Calm     85% 0.0 mm 0 W/m2
00:27 9.8 °C 7.4 °C 1013.5 hPa Calm     85% 0.0 mm 0 W/m2
00:32 9.8 °C 7.4 °C 1013.5 hPa Calm     85% 0.0 mm 0 W/m2
00:37 9.7 °C 7.5 °C 1013.5 hPa Calm     86% 0.0 mm 0 W/m2
00:42 9.6 °C 7.4 °C 1013.5 hPa Calm     86% 0.0 mm 0 W/m2
00:47 9.4 °C 7.3 °C 1013.2 hPa Calm     87% 0.0 mm 0 W/m2
00:52 9.4 °C 7.3 °C 1013.2 hPa Calm     87% 0.0 mm 0 W/m2
00:57 9.3 °C 7.2 °C 1013.2 hPa Calm     87% 0.0 mm 0 W/m2
01:02 9.2 °C 7.1 °C 1013.2 hPa Calm     87% 0.0 mm 0 W/m2
01:07 9.2 °C 7.3 °C 1013.2 hPa Calm     88% 0.0 mm 0 W/m2
01:12 9.2 °C 7.3 °C 1013.2 hPa Calm     88% 0.0 mm 0 W/m2
01:17 9.2 °C 7.3 °C 1013.2 hPa Calm     88% 0.0 mm 0 W/m2
01:22 9.2 °C 7.3 °C 1013.2 hPa Calm     88% 0.0 mm 0 W/m2
01:28 9.2 °C 7.5 °C 1013.2 hPa Calm     89% 0.0 mm 0 W/m2
01:33 9.3 °C 7.6 °C 1013.2 hPa Calm     89% 0.0 mm 0 W/m2
01:38 9.4 °C 7.7 °C 1013.2 hPa Calm     89% 0.0 mm 0 W/m2
01:43 9.4 °C 7.5 °C 1013.2 hPa Calm     88% 0.0 mm 0 W/m2
01:48 9.5 °C 7.6 °C 1013.2 hPa Calm     88% 0.0 mm 0 W/m2
01:53 9.4 °C 7.5 °C 1013.2 hPa Calm     88% 0.0 mm 0 W/m2
01:58 9.4 °C 7.5 °C 1012.9 hPa Calm     88% 0.0 mm 0 W/m2
02:03 9.3 °C 7.4 °C 1012.9 hPa Calm     88% 0.0 mm 0 W/m2
02:08 9.3 °C 7.4 °C 1012.9 hPa Calm     88% 0.0 mm 0 W/m2
02:13 9.3 °C 7.4 °C 1012.9 hPa Calm     88% 0.0 mm 0 W/m2
02:18 9.2 °C 7.5 °C 1012.9 hPa Calm     89% 0.0 mm 0 W/m2
02:23 9.2 °C 7.5 °C 1012.9 hPa Calm     89% 0.0 mm 0 W/m2
02:28 9.2 °C 7.5 °C 1012.9 hPa Calm     89% 0.0 mm 0 W/m2
02:33 9.2 °C 7.5 °C 1012.9 hPa Calm     89% 0.0 mm 0 W/m2
02:38 9.1 °C 7.4 °C 1012.9 hPa Calm     89% 0.0 mm 0 W/m2
02:43 9.1 °C 7.4 °C 1012.5 hPa Calm     89% 0.0 mm 0 W/m2
02:48 9 °C 7.3 °C 1012.9 hPa Calm     89% 0.0 mm 0 W/m2
02:53 8.9 °C 7.2 °C 1012.9 hPa Calm     89% 0.0 mm 0 W/m2
02:58 8.9 °C 7.3 °C 1012.9 hPa Calm     90% 0.0 mm 0 W/m2
03:03 8.9 °C 7.3 °C 1012.9 hPa Calm     90% 0.0 mm 0 W/m2
03:08 8.9 °C 7.3 °C 1012.5 hPa Calm     90% 0.0 mm 0 W/m2
03:13 8.9 °C 7.3 °C 1012.5 hPa Calm     90% 0.0 mm 0 W/m2
03:18 8.8 °C 7.2 °C 1012.5 hPa Calm     90% 0.0 mm 0 W/m2
03:23 8.8 °C 7.2 °C 1012.5 hPa Calm     90% 0.0 mm 0 W/m2
03:28 8.8 °C 7.4 °C 1012.2 hPa Calm     91% 0.0 mm 0 W/m2
03:33 8.8 °C 7.4 °C 1012.2 hPa Calm     91% 0.0 mm 0 W/m2
03:38 8.8 °C 7.4 °C 1012.2 hPa Calm     91% 0.0 mm 0 W/m2
03:43 8.9 °C 7.5 °C 1012.2 hPa Calm     91% 0.0 mm 0 W/m2
03:48 8.9 °C 7.5 °C 1012.2 hPa Calm     91% 0.0 mm 0 W/m2
03:53 9 °C 7.6 °C 1011.9 hPa Calm     91% 0.0 mm 0 W/m2
03:58 9 °C 7.6 °C 1011.9 hPa Calm     91% 0.0 mm 0 W/m2
04:03 9.1 °C 7.7 °C 1011.9 hPa Calm     91% 0.0 mm 0 W/m2
04:08 9.1 °C 7.7 °C 1011.9 hPa Calm     91% 0.0 mm 0 W/m2
04:13 9.1 °C 7.7 °C 1011.9 hPa Calm     91% 0.0 mm 0 W/m2
04:18 9.2 °C 7.8 °C 1011.9 hPa Calm     91% 0.0 mm 0 W/m2
04:23 9.2 °C 7.8 °C 1011.9 hPa Calm     91% 0.0 mm 0 W/m2
04:28 9.2 °C 7.8 °C 1011.9 hPa Calm     91% 0.0 mm 0 W/m2
04:33 9.3 °C 7.9 °C 1011.9 hPa Calm     91% 0.0 mm 0 W/m2
04:38 9.3 °C 7.9 °C 1011.9 hPa Calm     91% 0.0 mm 0 W/m2
04:43 9.3 °C 7.9 °C 1011.9 hPa Calm     91% 0.0 mm 0 W/m2
04:48 9.3 °C 7.7 °C 1011.9 hPa Calm     90% 0.0 mm 0 W/m2
04:53 9.3 °C 7.7 °C 1011.9 hPa Calm     90% 0.0 mm 0 W/m2
04:58 9.3 °C 7.7 °C 1011.5 hPa Calm     90% 0.0 mm 0 W/m2
05:03 9.3 °C 7.7 °C 1011.5 hPa Calm     90% 0.0 mm 0 W/m2
05:08 9.3 °C 7.7 °C 1011.5 hPa Calm     90% 0.0 mm 0 W/m2
05:13 9.3 °C 7.7 °C 1011.5 hPa Calm     90% 0.0 mm 0 W/m2
05:18 9.3 °C 7.7 °C 1011.2 hPa Calm     90% 0.0 mm 0 W/m2
05:23 9.3 °C 7.7 °C 1011.2 hPa Calm     90% 0.0 mm 0 W/m2
05:28 9.3 °C 7.7 °C 1011.2 hPa Calm     90% 0.0 mm 0 W/m2
05:33 9.4 °C 7.8 °C 1011.2 hPa Calm     90% 0.0 mm 0 W/m2
05:38 9.4 °C 7.8 °C 1011.2 hPa Calm     90% 0.0 mm 0 W/m2
05:43 9.4 °C 7.8 °C 1011.2 hPa Calm     90% 0.0 mm 0 W/m2
05:48 9.4 °C 7.8 °C 1011.2 hPa Calm     90% 0.0 mm 0 W/m2
05:53 9.4 °C 7.8 °C 1010.8 hPa SSE 3.2 km/h 3.2 km/h 90% 0.0 mm 0 W/m2
05:58 9.6 °C 8.2 °C 1010.8 hPa SSE 1.4 km/h 1.6 km/h 91% 0.0 mm 0 W/m2
06:03 9.6 °C 8.2 °C 1010.8 hPa SSE 3.2 km/h 3.2 km/h 91% 0.0 mm 0 W/m2
06:08 9.6 °C 8 °C 1010.8 hPa Calm     90% 0.0 mm 0 W/m2
06:13 9.6 °C 8 °C 1010.8 hPa Calm   3.2 km/h 90% 0.0 mm 0 W/m2
06:18 9.7 °C 8.1 °C 1010.8 hPa Calm     90% 0.0 mm 0 W/m2
06:23 9.7 °C 8.1 °C 1010.8 hPa Calm     90% 0.0 mm 0 W/m2
06:28 9.7 °C 8 °C 1010.8 hPa Calm     89% 0.0 mm 0 W/m2
06:34 9.7 °C 8 °C 1010.8 hPa Calm     89% 0.0 mm 0 W/m2
06:39 9.7 °C 8 °C 1010.8 hPa Calm     89% 0.0 mm 0 W/m2
06:44 9.7 °C 8 °C 1010.8 hPa Calm     89% 0.0 mm 0 W/m2
06:49 9.7 °C 8 °C 1010.8 hPa Calm     89% 0.0 mm 0 W/m2
06:54 9.8 °C 8.1 °C 1010.8 hPa Calm     89% 0.0 mm 0 W/m2
06:59 9.8 °C 8.1 °C 1011.2 hPa Calm     89% 0.0 mm 0 W/m2
07:04 9.8 °C 8.1 °C 1010.8 hPa Calm     89% 0.0 mm 0 W/m2
07:09 9.8 °C 8.1 °C 1010.8 hPa Calm     89% 0.0 mm 0 W/m2
07:14 9.8 °C 8.1 °C 1010.8 hPa Calm     89% 0.0 mm 0 W/m2
07:19 9.8 °C 8.1 °C 1010.8 hPa Calm     89% 0.0 mm 0 W/m2
07:24 9.8 °C 8.1 °C 1010.8 hPa Calm     89% 0.0 mm 0 W/m2
07:29 9.8 °C 8.1 °C 1010.8 hPa Calm     89% 0.0 mm 0 W/m2
07:34 9.8 °C 8.1 °C 1010.8 hPa Calm     89% 0.0 mm 0 W/m2
07:39 9.8 °C 8.1 °C 1010.8 hPa Calm     89% 0.0 mm 5 W/m2
07:44 9.9 °C 8.2 °C 1011.2 hPa Calm     89% 0.0 mm 0 W/m2
07:49 9.9 °C 8.2 °C 1011.2 hPa Calm     89% 0.0 mm 5 W/m2
07:54 9.9 °C 8.2 °C 1011.2 hPa Calm     89% 0.0 mm 9 W/m2
07:59 10.1 °C 8.4 °C 1011.2 hPa SSE 1.4 km/h 1.6 km/h 89% 0.0 mm 12 W/m2
08:04 10.1 °C 8.4 °C 1011.2 hPa Calm     89% 0.0 mm 12 W/m2
08:09 10.2 °C 8.5 °C 1011.2 hPa Calm     89% 0.0 mm 14 W/m2
08:14 10.2 °C 8.3 °C 1011.2 hPa Calm     88% 0.0 mm 21 W/m2
08:19 10.3 °C 8.4 °C 1011.2 hPa SSE 1.4 km/h 1.6 km/h 88% 0.0 mm 33 W/m2
08:24 10.3 °C 8.4 °C 1011.2 hPa Calm   1.6 km/h 88% 0.0 mm 39 W/m2
08:29 10.4 °C 8.3 °C 1011.2 hPa Calm     87% 0.0 mm 42 W/m2
08:34 10.5 °C 8.4 °C 1011.5 hPa Calm     87% 0.0 mm 51 W/m2
08:39 10.6 °C 8.5 °C 1011.2 hPa SSE 1.4 km/h 1.6 km/h 87% 0.0 mm 60 W/m2
08:44 10.7 °C 8.6 °C 1011.2 hPa Calm     87% 0.0 mm 63 W/m2
08:49 10.8 °C 8.6 °C 1011.2 hPa Calm   3.2 km/h 86% 0.0 mm 60 W/m2
08:54 10.8 °C 8.6 °C 1011.2 hPa SE 1.4 km/h 1.6 km/h 86% 0.0 mm 56 W/m2
08:59 10.9 °C 8.6 °C 1011.2 hPa Calm   3.2 km/h 86% 0.0 mm 54 W/m2
09:04 11 °C 8.7 °C 1011.2 hPa Calm   1.6 km/h 86% 0.0 mm 53 W/m2
09:09 11 °C 8.6 °C 1011.2 hPa Calm   3.2 km/h 85% 0.0 mm 47 W/m2
09:14 11.1 °C 8.7 °C 1011.2 hPa Calm     85% 0.0 mm 74 W/m2
09:19 11.1 °C 8.7 °C 1011.2 hPa Calm     85% 0.0 mm 98 W/m2
09:24 11.2 °C 8.8 °C 1011.2 hPa Calm   1.6 km/h 85% 0.0 mm 165 W/m2
09:29 11.4 °C 9 °C 1011.2 hPa Calm     85% 0.0 mm 304 W/m2
09:34 11.7 °C 9.3 °C 1011.2 hPa SE 1.4 km/h 1.6 km/h 85% 0.0 mm 149 W/m2
09:39 12 °C 9.4 °C 1011.2 hPa Calm   1.6 km/h 84% 0.0 mm 149 W/m2
09:44 12.2 °C 9.2 °C 1011.5 hPa ENE 1.4 km/h 3.2 km/h 82% 0.0 mm 128 W/m2
09:49 12.3 °C 9.3 °C 1011.5 hPa SE 1.4 km/h 3.2 km/h 82% 0.0 mm 137 W/m2
09:54 12.3 °C 9.3 °C 1011.5 hPa SE 1.4 km/h 3.2 km/h 82% 0.0 mm 153 W/m2
09:59 12.4 °C 9.4 °C 1011.5 hPa Calm   3.2 km/h 82% 0.0 mm 155 W/m2
10:04 12.4 °C 9.2 °C 1011.2 hPa Calm   1.6 km/h 81% 0.0 mm 149 W/m2
10:09 12.6 °C 9.4 °C 1011.5 hPa Calm     81% 0.0 mm 162 W/m2
10:14 12.6 °C 9.4 °C 1011.5 hPa Calm   3.2 km/h 81% 0.0 mm 130 W/m2
10:19 12.7 °C 9.3 °C 1011.5 hPa SE 1.4 km/h 3.2 km/h 80% 0.0 mm 146 W/m2
10:24 12.8 °C 9.4 °C 1011.5 hPa Calm     80% 0.0 mm 148 W/m2
10:29 12.8 °C 9.4 °C 1011.5 hPa Calm   1.6 km/h 80% 0.0 mm 128 W/m2
10:35 12.9 °C 9.5 °C 1011.5 hPa SE 1.4 km/h 3.2 km/h 80% 0.0 mm 132 W/m2
10:40 13 °C 9.6 °C 1011.5 hPa SE 1.4 km/h 1.6 km/h 80% 0.0 mm 107 W/m2
10:45 13.1 °C 9.7 °C 1011.5 hPa Calm   3.2 km/h 80% 0.0 mm 97 W/m2
10:50 13.1 °C 9.7 °C 1011.5 hPa SE 1.4 km/h 3.2 km/h 80% 0.0 mm 102 W/m2
10:55 13.1 °C 9.7 °C 1011.5 hPa Calm   1.6 km/h 80% 0.0 mm 109 W/m2
11:00 13.1 °C 9.7 °C 1011.5 hPa SE 3.2 km/h 3.2 km/h 80% 0.0 mm 120 W/m2
11:05 13.1 °C 9.7 °C 1011.5 hPa Calm   3.2 km/h 80% 0.0 mm 141 W/m2
11:10 13.2 °C 10 °C 1011.5 hPa ENE 4.7 km/h 4.8 km/h 81% 0.0 mm 153 W/m2
11:15 13.2 °C 9.8 °C 1011.5 hPa ESE 1.4 km/h 1.6 km/h 80% 0.0 mm 190 W/m2
11:20 13.3 °C 10.1 °C 1011.5 hPa ESE 3.2 km/h 4.8 km/h 81% 0.0 mm 204 W/m2
11:25 13.4 °C 10 °C 1011.9 hPa East 1.4 km/h 3.2 km/h 80% 0.0 mm 216 W/m2
11:30 13.4 °C 10 °C 1011.9 hPa ENE 4.7 km/h 4.8 km/h 80% 0.0 mm 185 W/m2
11:35 13.6 °C 10.2 °C 1011.9 hPa ESE 3.2 km/h 4.8 km/h 80% 0.0 mm 197 W/m2
11:40 13.7 °C 10.1 °C 1011.9 hPa ESE 3.2 km/h 4.8 km/h 79% 0.0 mm 234 W/m2
11:45 13.8 °C 10.4 °C 1011.9 hPa ESE 4.7 km/h 6.4 km/h 80% 0.0 mm 262 W/m2
11:50 14 °C 10.6 °C 1011.5 hPa East 4.7 km/h 4.8 km/h 80% 0.0 mm 295 W/m2
11:55 14.1 °C 10.7 °C 1011.5 hPa Calm   3.2 km/h 80% 0.0 mm 302 W/m2
12:00 14.3 °C 10.7 °C 1011.9 hPa ENE 3.2 km/h 4.8 km/h 79% 0.0 mm 267 W/m2
12:05 14.3 °C 10.5 °C 1011.9 hPa ENE 3.2 km/h 4.8 km/h 78% 0.0 mm 272 W/m2
12:10 14.5 °C 10.7 °C 1011.5 hPa Calm   4.8 km/h 78% 0.0 mm 274 W/m2
12:15 14.7 °C 10.9 °C 1011.5 hPa ESE 3.2 km/h 4.8 km/h 78% 0.0 mm 267 W/m2
12:20 14.9 °C 10.9 °C 1011.5 hPa ENE 1.4 km/h 6.4 km/h 77% 0.0 mm 290 W/m2
12:25 15.2 °C 11 °C 1011.5 hPa ENE 3.2 km/h 4.8 km/h 76% 0.0 mm 306 W/m2
12:30 15.4 °C 11 °C 1011.5 hPa NE 3.2 km/h 4.8 km/h 75% 0.0 mm 315 W/m2
12:35 15.6 °C 11 °C 1011.5 hPa WNW 1.4 km/h 3.2 km/h 74% 0.0 mm 406 W/m2
12:40 15.8 °C 11 °C 1011.5 hPa NNE 4.7 km/h 12.9 km/h 73% 0.0 mm 269 W/m2
12:45 15.9 °C 10.6 °C 1011.5 hPa WNW 6.4 km/h 6.4 km/h 71% 0.0 mm 341 W/m2
12:50 16.1 °C 10.6 °C 1011.5 hPa NW 11.1 km/h 12.9 km/h 70% 0.0 mm 290 W/m2
12:55 16.2 °C 10.5 °C 1011.5 hPa WNW 1.4 km/h 11.3 km/h 69% 0.0 mm 415 W/m2
13:00 16.4 °C 10.7 °C 1011.5 hPa West 4.7 km/h 12.9 km/h 69% 0.0 mm 390 W/m2
13:05 16.4 °C 10.5 °C 1011.5 hPa West 3.2 km/h 12.9 km/h 68% 0.0 mm 413 W/m2
13:10 16.5 °C 10.6 °C 1011.5 hPa NNW 1.4 km/h 6.4 km/h 68% 0.0 mm 299 W/m2
13:15 16.5 °C 10.6 °C 1011.5 hPa WNW 4.7 km/h 4.8 km/h 68% 0.0 mm 211 W/m2
13:20 16.5 °C 10.6 °C 1011.5 hPa WSW 1.4 km/h 3.2 km/h 68% 0.0 mm 199 W/m2
13:25 16.4 °C 10.3 °C 1011.5 hPa WNW 1.4 km/h 4.8 km/h 67% 0.0 mm 236 W/m2
13:30 16.4 °C 10.5 °C 1011.5 hPa WSW 6.4 km/h 11.3 km/h 68% 0.0 mm 301 W/m2
13:35 16.3 °C 10.2 °C 1011.5 hPa West 9.7 km/h 11.3 km/h 67% 0.0 mm 178 W/m2
13:40 16.2 °C 10.1 °C 1011.5 hPa West 3.2 km/h 6.4 km/h 67% 0.0 mm 227 W/m2
13:45 16.2 °C 10.1 °C 1011.5 hPa West 6.4 km/h 11.3 km/h 67% 0.0 mm 202 W/m2
13:50 16.2 °C 10.3 °C 1011.5 hPa WNW 3.2 km/h 3.2 km/h 68% 0.0 mm 287 W/m2
13:55 16.2 °C 10.5 °C 1011.5 hPa WSW 3.2 km/h 8 km/h 69% 0.0 mm 287 W/m2
14:00 16.1 °C 10.6 °C 1011.2 hPa WNW 3.2 km/h 4.8 km/h 70% 0.0 mm 332 W/m2
14:05 16.1 °C 10.6 °C 1011.2 hPa Calm   6.4 km/h 70% 0.0 mm 283 W/m2
14:10 16.2 °C 10.5 °C 1011.2 hPa SSW 1.4 km/h 4.8 km/h 69% 0.0 mm 250 W/m2
14:15 16.2 °C 10.7 °C 1011.2 hPa ENE 1.4 km/h 6.4 km/h 70% 0.0 mm 267 W/m2
14:20 16.1 °C 10.6 °C 1011.2 hPa WSW 3.2 km/h 8 km/h 70% 0.0 mm 271 W/m2
14:25 16.1 °C 10.8 °C 1011.2 hPa West 3.2 km/h 3.2 km/h 71% 0.0 mm 255 W/m2
14:30 16.1 °C 10.6 °C 1011.2 hPa Calm   4.8 km/h 70% 0.0 mm 216 W/m2
14:35 16.2 °C 10.9 °C 1011.2 hPa North 1.4 km/h 6.4 km/h 71% 0.0 mm 214 W/m2
14:40 16.3 °C 10.8 °C 1011.2 hPa ENE 4.7 km/h 8 km/h 70% 0.0 mm 250 W/m2
14:45 16.4 °C 10.9 °C 1011.2 hPa ENE 3.2 km/h 6.4 km/h 70% 0.0 mm 223 W/m2
14:50 16.4 °C 10.9 °C 1011.2 hPa North 1.4 km/h 6.4 km/h 70% 0.0 mm 179 W/m2
14:55 16.4 °C 10.7 °C 1011.2 hPa ENE 1.4 km/h 9.7 km/h 69% 0.0 mm 220 W/m2
15:00 16.3 °C 10.6 °C 1010.8 hPa Calm   6.4 km/h 69% 0.0 mm 214 W/m2
15:05 16.4 °C 10.7 °C 1011.2 hPa WSW 3.2 km/h 8 km/h 69% 0.0 mm 325 W/m2
15:10 16.6 °C 11.1 °C 1010.8 hPa West 11.3 km/h 11.3 km/h 70% 0.0 mm 387 W/m2
15:15 16.8 °C 10.9 °C 1010.8 hPa SE 6.4 km/h 8 km/h 68% 0.0 mm 352 W/m2
15:20 16.9 °C 11 °C 1010.8 hPa ENE 11.3 km/h 11.3 km/h 68% 0.0 mm 290 W/m2
15:25 17 °C 10.8 °C 1010.8 hPa NW 1.4 km/h 6.4 km/h 67% 0.0 mm 246 W/m2
15:30 17 °C 10.6 °C 1011.2 hPa WNW 11.1 km/h 12.9 km/h 66% 0.0 mm 207 W/m2
15:35 16.7 °C 10.5 °C 1010.8 hPa NW 1.4 km/h 4.8 km/h 67% 0.0 mm 146 W/m2
15:40 16.7 °C 10.8 °C 1011.2 hPa West 6.4 km/h 6.4 km/h 68% 0.0 mm 90 W/m2
15:45 16.6 °C 10.7 °C 1011.2 hPa WSW 3.2 km/h 4.8 km/h 68% 0.0 mm 95 W/m2
15:50 16.4 °C 10.5 °C 1011.2 hPa WNW 4.7 km/h 8 km/h 68% 0.0 mm 88 W/m2
15:55 16.3 °C 10.6 °C 1011.2 hPa WSW 3.2 km/h 8 km/h 69% 0.0 mm 100 W/m2
16:00 16.2 °C 10.7 °C 1011.2 hPa WNW 4.7 km/h 4.8 km/h 70% 0.0 mm 120 W/m2
16:05 16.2 °C 10.5 °C 1010.8 hPa WNW 1.4 km/h 3.2 km/h 69% 0.0 mm 151 W/m2
16:10 16.2 °C 10.5 °C 1010.8 hPa East 3.2 km/h 4.8 km/h 69% 0.0 mm 151 W/m2
16:15 16.2 °C 10.7 °C 1010.8 hPa WNW 1.4 km/h 6.4 km/h 70% 0.0 mm 153 W/m2
16:20 16.2 °C 10.7 °C 1010.8 hPa WNW 3.2 km/h 6.4 km/h 70% 0.0 mm 148 W/m2
16:25 16.2 °C 10.7 °C 1010.8 hPa WNW 1.4 km/h 6.4 km/h 70% 0.0 mm 127 W/m2
16:30 16.2 °C 10.5 °C 1010.8 hPa WSW 1.4 km/h 6.4 km/h 69% 0.0 mm 120 W/m2
16:35 16.2 °C 10.7 °C 1010.8 hPa NW 3.2 km/h 3.2 km/h 70% 0.0 mm 149 W/m2
16:40 16.3 °C 10.4 °C 1010.8 hPa WSW 3.2 km/h 8 km/h 68% 0.0 mm 165 W/m2
16:45 16.2 °C 10.1 °C 1010.8 hPa West 3.2 km/h 6.4 km/h 67% 0.0 mm 163 W/m2
16:50 16.2 °C 10.1 °C 1010.8 hPa SSW 1.4 km/h 3.2 km/h 67% 0.0 mm 167 W/m2
16:55 16.3 °C 10.4 °C 1010.8 hPa SSW 3.2 km/h 8 km/h 68% 0.0 mm 151 W/m2
17:00 16.3 °C 10.2 °C 1010.8 hPa Calm   1.6 km/h 67% 0.0 mm 128 W/m2
17:05 16.4 °C 10 °C 1010.8 hPa NNW 1.4 km/h 8 km/h 66% 0.0 mm 107 W/m2
17:10 16.4 °C 10.3 °C 1010.8 hPa NNW 1.4 km/h 3.2 km/h 67% 0.0 mm 109 W/m2
17:15 16.5 °C 10.1 °C 1010.8 hPa West 1.4 km/h 11.3 km/h 66% 0.0 mm 118 W/m2
17:20 16.4 °C 10 °C 1010.8 hPa WNW 1.4 km/h 6.4 km/h 66% 0.0 mm 120 W/m2
17:25 16.4 °C 10.3 °C 1010.8 hPa Calm   11.3 km/h 67% 0.0 mm 113 W/m2
17:31 16.4 °C 10.3 °C 1010.8 hPa NNE 1.4 km/h 3.2 km/h 67% 0.0 mm 102 W/m2
17:36 16.4 °C 10 °C 1010.8 hPa SSE 1.4 km/h 4.8 km/h 66% 0.0 mm 95 W/m2
17:41 16.4 °C 10 °C 1010.8 hPa West 1.4 km/h 6.4 km/h 66% 0.0 mm 86 W/m2
17:46 16.4 °C 10 °C 1010.8 hPa West 4.7 km/h 4.8 km/h 66% 0.0 mm 84 W/m2
17:51 16.3 °C 9.7 °C 1010.8 hPa West 3.2 km/h 4.8 km/h 65% 0.0 mm 97 W/m2
17:56 16.3 °C 9.7 °C 1010.8 hPa WNW 1.4 km/h 4.8 km/h 65% 0.0 mm 134 W/m2
18:01 16.4 °C 9.6 °C 1010.8 hPa West 1.4 km/h 6.4 km/h 64% 0.0 mm 69 W/m2
18:06 16.3 °C 9.5 °C 1010.5 hPa WSW 1.4 km/h 6.4 km/h 64% 0.0 mm 60 W/m2
18:11 16.3 °C 9.7 °C 1010.5 hPa WSW 4.7 km/h 9.7 km/h 65% 0.0 mm 56 W/m2
18:16 16.2 °C 9.6 °C 1010.5 hPa Calm   4.8 km/h 65% 0.0 mm 54 W/m2
18:21 16.2 °C 9.6 °C 1010.8 hPa West 3.2 km/h 4.8 km/h 65% 0.0 mm 49 W/m2
18:26 16.2 °C 9.8 °C 1010.8 hPa West 4.7 km/h 6.4 km/h 66% 0.0 mm 40 W/m2
18:31 16.2 °C 9.6 °C 1010.8 hPa West 3.2 km/h 4.8 km/h 65% 0.0 mm 35 W/m2
18:36 16.1 °C 9.7 °C 1010.8 hPa West 3.2 km/h 4.8 km/h 66% 0.0 mm 32 W/m2
18:41 16 °C 9.7 °C 1010.8 hPa West 1.4 km/h 3.2 km/h 66% 0.0 mm 28 W/m2
18:46 15.9 °C 9.8 °C 1010.8 hPa WNW 3.2 km/h 6.4 km/h 67% 0.0 mm 25 W/m2
18:51 15.9 °C 9.8 °C 1010.8 hPa Calm   1.6 km/h 67% 0.0 mm 23 W/m2
18:56 15.8 °C 9.9 °C 1010.8 hPa West 1.4 km/h 3.2 km/h 68% 0.0 mm 19 W/m2
19:01 15.7 °C 10 °C 1010.8 hPa West 1.4 km/h 3.2 km/h 69% 0.0 mm 16 W/m2
19:06 15.6 °C 9.9 °C 1010.8 hPa West 3.2 km/h 3.2 km/h 69% 0.0 mm 12 W/m2
19:11 15.5 °C 10.1 °C 1010.8 hPa West 1.4 km/h 3.2 km/h 70% 0.0 mm 7 W/m2
19:16 15.4 °C 10 °C 1010.8 hPa West 1.4 km/h 3.2 km/h 70% 0.0 mm 5 W/m2
19:21 15.4 °C 10 °C 1011.2 hPa WNW 3.2 km/h 4.8 km/h 70% 0.0 mm 0 W/m2
19:26 15.4 °C 10 °C 1011.2 hPa West 3.2 km/h 4.8 km/h 70% 0.0 mm 0 W/m2
19:31 15.3 °C 10.1 °C 1011.2 hPa WSW 4.7 km/h 4.8 km/h 71% 0.0 mm 0 W/m2
19:36 15.3 °C 10.1 °C 1011.2 hPa WNW 3.2 km/h 6.4 km/h 71% 0.0 mm 0 W/m2
19:41 15.2 °C 10.2 °C 1011.2 hPa West 3.2 km/h 4.8 km/h 72% 0.0 mm 0 W/m2
19:46 15.2 °C 10.2 °C 1011.2 hPa West 4.7 km/h 6.4 km/h 72% 0.0 mm 0 W/m2
19:51 15.2 °C 10.2 °C 1011.2 hPa West 1.4 km/h 4.8 km/h 72% 0.0 mm 0 W/m2
19:56 15.1 °C 10.3 °C 1011.2 hPa WNW 1.4 km/h 4.8 km/h 73% 0.0 mm 0 W/m2
20:01 15.1 °C 10.3 °C 1011.2 hPa West 3.2 km/h 4.8 km/h 73% 0.0 mm 0 W/m2
20:06 15.1 °C 10.3 °C 1011.2 hPa West 3.2 km/h 6.4 km/h 73% 0.0 mm 0 W/m2
20:11 15 °C 10.4 °C 1011.2 hPa West 3.2 km/h 4.8 km/h 74% 0.0 mm 0 W/m2
20:16 14.9 °C 10.3 °C 1011.2 hPa West 3.2 km/h 4.8 km/h 74% 0.0 mm 0 W/m2
20:21 14.9 °C 10.3 °C 1011.2 hPa WNW 1.4 km/h 3.2 km/h 74% 0.0 mm 0 W/m2
20:26 14.9 °C 10.3 °C 1011.5 hPa West 3.2 km/h 3.2 km/h 74% 0.0 mm 0 W/m2
20:31 14.9 °C 10.3 °C 1011.5 hPa Calm   1.6 km/h 74% 0.0 mm 0 W/m2
20:36 14.8 °C 10.4 °C 1011.5 hPa Calm     75% 0.0 mm 0 W/m2
20:41 14.8 °C 10.4 °C 1011.5 hPa Calm     75% 0.0 mm 0 W/m2
20:46 14.8 °C 10.4 °C 1011.5 hPa Calm     75% 0.0 mm 0 W/m2
20:51 14.7 °C 10.5 °C 1011.5 hPa Calm     76% 0.0 mm 0 W/m2
20:56 14.7 °C 10.5 °C 1011.5 hPa Calm     76% 0.0 mm 0 W/m2
21:01 14.6 °C 10.6 °C 1011.5 hPa Calm     77% 0.0 mm 0 W/m2
21:06 14.6 °C 10.6 °C 1011.5 hPa West 3.2 km/h 3.2 km/h 77% 0.0 mm 0 W/m2
21:11 14.6 °C 10.6 °C 1011.5 hPa West 1.4 km/h 1.6 km/h 77% 0.0 mm 0 W/m2
21:16 14.5 °C 10.5 °C 1011.5 hPa Calm     77% 0.0 mm 0 W/m2
21:21 14.5 °C 10.5 °C 1011.5 hPa West 1.4 km/h 3.2 km/h 77% 0.0 mm 0 W/m2
21:26 14.6 °C 10.6 °C 1011.9 hPa West 3.2 km/h 4.8 km/h 77% 0.0 mm 0 W/m2
21:31 14.6 °C 10.6 °C 1011.9 hPa West 1.4 km/h 3.2 km/h 77% 0.0 mm 0 W/m2
21:36 14.6 °C 10.6 °C 1011.9 hPa Calm   3.2 km/h 77% 0.0 mm 0 W/m2
21:41 14.5 °C 10.5 °C 1011.9 hPa Calm     77% 0.0 mm 0 W/m2
21:46 14.4 °C 10.6 °C 1011.9 hPa Calm     78% 0.0 mm 0 W/m2
21:51 14.4 °C 10.6 °C 1011.9 hPa Calm     78% 0.0 mm 0 W/m2
21:56 14.4 °C 10.8 °C 1011.9 hPa Calm     79% 0.0 mm 0 W/m2
22:01 14.3 °C 10.7 °C 1011.9 hPa Calm     79% 0.0 mm 0 W/m2
22:06 14.3 °C 10.7 °C 1011.9 hPa Calm     79% 0.0 mm 0 W/m2
22:11 14.2 °C 10.8 °C 1011.9 hPa Calm     80% 0.0 mm 0 W/m2
22:16 14.1 °C 10.7 °C 1011.9 hPa Calm     80% 0.0 mm 0 W/m2
22:21 14.1 °C 10.7 °C 1011.9 hPa Calm     80% 0.0 mm 0 W/m2
22:26 14 °C 10.6 °C 1011.9 hPa Calm   1.6 km/h 80% 0.0 mm 0 W/m2
22:31 14 °C 10.6 °C 1011.9 hPa West 1.4 km/h 1.6 km/h 80% 0.0 mm 0 W/m2
22:36 14 °C 10.6 °C 1011.9 hPa Calm   1.6 km/h 80% 0.0 mm 0 W/m2
22:41 14 °C 10.6 °C 1011.9 hPa West 3.2 km/h 3.2 km/h 80% 0.0 mm 0 W/m2
22:46 14 °C 10.6 °C 1011.9 hPa Calm   1.6 km/h 80% 0.0 mm 0 W/m2
22:51 14 °C 10.6 °C 1011.9 hPa Calm     80% 0.0 mm 0 W/m2
22:56 14 °C 10.6 °C 1011.9 hPa West 1.4 km/h 3.2 km/h 80% 0.0 mm 0 W/m2
23:01 14 °C 10.6 °C 1011.9 hPa West 1.4 km/h 3.2 km/h 80% 0.0 mm 0 W/m2
23:06 13.9 °C 10.5 °C 1011.9 hPa Calm   4.8 km/h 80% 0.0 mm 0 W/m2
23:11 13.9 °C 10.7 °C 1011.9 hPa West 1.4 km/h 3.2 km/h 81% 0.0 mm 0 W/m2
23:16 13.8 °C 10.6 °C 1011.9 hPa West 1.4 km/h 3.2 km/h 81% 0.0 mm 0 W/m2
23:21 13.8 °C 10.6 °C 1011.9 hPa West 1.4 km/h 4.8 km/h 81% 0.0 mm 0 W/m2
23:26 13.8 °C 10.6 °C 1011.9 hPa WSW 1.4 km/h 3.2 km/h 81% 0.0 mm 0 W/m2
23:31 13.8 °C 10.6 °C 1011.9 hPa WSW 4.7 km/h 4.8 km/h 81% 0.0 mm 0 W/m2
23:36 13.8 °C 10.6 °C 1011.9 hPa WSW 3.2 km/h 6.4 km/h 81% 0.0 mm 0 W/m2
23:41 13.8 °C 10.6 °C 1011.9 hPa West 3.2 km/h 4.8 km/h 81% 0.0 mm 0 W/m2
23:46 13.8 °C 10.6 °C 1011.9 hPa WSW 4.7 km/h 6.4 km/h 81% 0.0 mm 0 W/m2
23:51 13.8 °C 10.6 °C 1011.9 hPa West 4.7 km/h 4.8 km/h 81% 0.0 mm 0 W/m2
23:56 13.7 °C 10.5 °C 1012.2 hPa West 3.2 km/h 4.8 km/h 81% 0.0 mm 0 W/m2
Juneau County Weather
Compliments of Weather Underground - 4 mb